Airport details for: LTAI (Turkey)

Metar

LTAI 241120Z 20011KT CAVOK 22/01 Q1015 NOSIG

General details

ICAO: LTAI
IATA: AYT
Name (city): Antalya
Major:
Country: Turkey
vACC: vACC Turkey
Description:
Scenery links:
FS9 scenery:
FSX/P3D scenery:
XP scenery:
Elevation: 177 ft.
Transition altitude: 15000 ft.
MSA: 11100 ft.
Latitude: 36.900278
Longitude: 30.792778
LTAI Charts
LTAI Notams
LTAI Online stations

Runways

Number Course Length Elevation Lat Lon ILS ILS freq ILS FAC GP
18C 182° 11155ft / 3400 m 176ft 36.915547 30.794758 108.7 182° 3.0°
18L 182° 11155ft / 3400 m 176ft 36.91135 30.811406 109.75 182° 0.0°
18R 182° 9810ft / 2990 m 172ft 36.915756 30.792383 - - 3.0°
36C 11155ft / 3400 m 176ft 36.885084 30.790583 110.3 3.0°
36L 9810ft / 2990 m 176ft 36.888972 30.788714 - - 3.0°
36R 11155ft / 3400 m 158ft 36.880897 30.807214 108.1 3.0°